sensor_id;sensor_type;location;lat;lon;timestamp;P1;durP1;ratioP1;P2;durP2;ratioP2
36213;SDS011;37652;50.400;30.628;2022-07-23T00:01:14;2.72;;;2.53;;
36213;SDS011;37652;50.400;30.628;2022-07-23T00:03:18;2.58;;;2.38;;
36213;SDS011;37652;50.400;30.628;2022-07-23T00:05:19;4.88;;;2.70;;
36213;SDS011;37652;50.400;30.628;2022-07-23T00:07:22;2.35;;;2.22;;
36213;SDS011;37652;50.400;30.628;2022-07-23T00:09:23;2.72;;;2.53;;
36213;SDS011;37652;50.400;30.628;2022-07-23T00:11:24;3.33;;;2.67;;
36213;SDS011;37652;50.400;30.628;2022-07-23T00:13:26;3.13;;;2.58;;
36213;SDS011;37652;50.400;30.628;2022-07-23T00:15:27;2.47;;;2.38;;
36213;SDS011;37652;50.400;30.628;2022-07-23T00:17:28;3.10;;;2.80;;
36213;SDS011;37652;50.400;30.628;2022-07-23T00:19:28;4.70;;;2.70;;
36213;SDS011;37652;50.400;30.628;2022-07-23T00:21:29;4.00;;;2.33;;
36213;SDS011;37652;50.400;30.628;2022-07-23T00:23:30;2.50;;;2.40;;
36213;SDS011;37652;50.400;30.628;2022-07-23T00:27:31;2.73;;;2.53;;
36213;SDS011;37652;50.400;30.628;2022-07-23T00:29:32;2.72;;;2.53;;
36213;SDS011;37652;50.400;30.628;2022-07-23T00:33:34;3.55;;;2.70;;
36213;SDS011;37652;50.400;30.628;2022-07-23T00:35:36;2.97;;;2.78;;
36213;SDS011;37652;50.400;30.628;2022-07-23T00:37:40;3.78;;;2.17;;
36213;SDS011;37652;50.400;30.628;2022-07-23T00:39:41;3.47;;;2.58;;
36213;SDS011;37652;50.400;30.628;2022-07-23T00:41:42;3.35;;;3.03;;
36213;SDS011;37652;50.400;30.628;2022-07-23T00:43:42;3.05;;;2.80;;
36213;SDS011;37652;50.400;30.628;2022-07-23T00:45:43;3.45;;;3.13;;
36213;SDS011;37652;50.400;30.628;2022-07-23T00:47:44;2.90;;;2.70;;
36213;SDS011;37652;50.400;30.628;2022-07-23T00:49:44;2.22;;;2.13;;
36213;SDS011;37652;50.400;30.628;2022-07-23T00:51:45;4.20;;;2.70;;
36213;SDS011;37652;50.400;30.628;2022-07-23T00:53:47;3.00;;;2.80;;
36213;SDS011;37652;50.400;30.628;2022-07-23T00:55:48;4.85;;;2.70;;
36213;SDS011;37652;50.400;30.628;2022-07-23T00:57:49;3.03;;;2.83;;
36213;SDS011;37652;50.400;30.628;2022-07-23T00:59:50;4.28;;;2.67;;
36213;SDS011;37652;50.400;30.628;2022-07-23T01:01:51;2.90;;;2.70;;
36213;SDS011;37652;50.400;30.628;2022-07-23T01:03:52;6.97;;;2.88;;
36213;SDS011;37652;50.400;30.628;2022-07-23T01:05:53;3.03;;;2.78;;
36213;SDS011;37652;50.400;30.628;2022-07-23T01:07:54;3.13;;;2.83;;
36213;SDS011;37652;50.400;30.628;2022-07-23T01:09:54;3.33;;;3.03;;
36213;SDS011;37652;50.400;30.628;2022-07-23T01:11:55;2.70;;;2.50;;
36213;SDS011;37652;50.400;30.628;2022-07-23T01:13:57;3.58;;;3.00;;
36213;SDS011;37652;50.400;30.628;2022-07-23T01:15:57;2.88;;;2.67;;
36213;SDS011;37652;50.400;30.628;2022-07-23T01:17:58;3.30;;;3.03;;
36213;SDS011;37652;50.400;30.628;2022-07-23T01:19:59;2.65;;;2.45;;
36213;SDS011;37652;50.400;30.628;2022-07-23T01:22:01;5.20;;;2.88;;
36213;SDS011;37652;50.400;30.628;2022-07-23T01:24:03;3.17;;;2.97;;
36213;SDS011;37652;50.400;30.628;2022-07-23T01:26:05;3.42;;;3.13;;
36213;SDS011;37652;50.400;30.628;2022-07-23T01:28:05;2.75;;;2.55;;
36213;SDS011;37652;50.400;30.628;2022-07-23T01:30:06;3.20;;;2.90;;
36213;SDS011;37652;50.400;30.628;2022-07-23T01:32:07;2.72;;;2.53;;
36213;SDS011;37652;50.400;30.628;2022-07-23T01:34:08;3.72;;;2.90;;
36213;SDS011;37652;50.400;30.628;2022-07-23T01:36:09;3.25;;;2.95;;
36213;SDS011;37652;50.400;30.628;2022-07-23T01:38:11;4.43;;;2.63;;
36213;SDS011;37652;50.400;30.628;2022-07-23T01:40:12;3.38;;;3.17;;
36213;SDS011;37652;50.400;30.628;2022-07-23T01:42:12;4.25;;;2.70;;
36213;SDS011;37652;50.400;30.628;2022-07-23T01:44:13;3.35;;;3.10;;
36213;SDS011;37652;50.400;30.628;2022-07-23T01:46:14;3.00;;;2.70;;
36213;SDS011;37652;50.400;30.628;2022-07-23T01:48:14;3.00;;;2.80;;
36213;SDS011;37652;50.400;30.628;2022-07-23T01:50:16;3.90;;;3.28;;
36213;SDS011;37652;50.400;30.628;2022-07-23T01:52:17;3.13;;;2.83;;
36213;SDS011;37652;50.400;30.628;2022-07-23T01:54:18;3.67;;;3.38;;
36213;SDS011;37652;50.400;30.628;2022-07-23T01:56:18;2.78;;;2.60;;
36213;SDS011;37652;50.400;30.628;2022-07-23T01:58:20;2.83;;;2.63;;
36213;SDS011;37652;50.400;30.628;2022-07-23T02:02:22;3.40;;;3.10;;
36213;SDS011;37652;50.400;30.628;2022-07-23T02:06:24;3.22;;;3.03;;
36213;SDS011;37652;50.400;30.628;2022-07-23T02:08:25;3.33;;;3.03;;
36213;SDS011;37652;50.400;30.628;2022-07-23T02:10:26;3.40;;;3.10;;
36213;SDS011;37652;50.400;30.628;2022-07-23T02:12:26;10.93;;;3.30;;
36213;SDS011;37652;50.400;30.628;2022-07-23T02:14:27;3.42;;;3.13;;
36213;SDS011;37652;50.400;30.628;2022-07-23T02:16:28;3.90;;;2.97;;
36213;SDS011;37652;50.400;30.628;2022-07-23T02:18:29;3.13;;;2.92;;
36213;SDS011;37652;50.400;30.628;2022-07-23T02:20:30;3.40;;;3.10;;
36213;SDS011;37652;50.400;30.628;2022-07-23T02:22:30;3.75;;;3.45;;
36213;SDS011;37652;50.400;30.628;2022-07-23T02:24:31;3.70;;;2.88;;
36213;SDS011;37652;50.400;30.628;2022-07-23T02:28:34;3.33;;;2.90;;
36213;SDS011;37652;50.400;30.628;2022-07-23T02:30:35;3.33;;;3.13;;
36213;SDS011;37652;50.400;30.628;2022-07-23T02:32:37;3.67;;;3.38;;
36213;SDS011;37652;50.400;30.628;2022-07-23T02:34:39;4.32;;;3.50;;
36213;SDS011;37652;50.400;30.628;2022-07-23T02:36:40;3.28;;;2.97;;
36213;SDS011;37652;50.400;30.628;2022-07-23T02:38:40;6.90;;;3.08;;
36213;SDS011;37652;50.400;30.628;2022-07-23T02:40:41;3.55;;;3.25;;
36213;SDS011;37652;50.400;30.628;2022-07-23T02:42:42;3.13;;;2.88;;
36213;SDS011;37652;50.400;30.628;2022-07-23T02:44:43;3.20;;;3.00;;
36213;SDS011;37652;50.400;30.628;2022-07-23T02:46:43;4.18;;;3.55;;
36213;SDS011;37652;50.400;30.628;2022-07-23T02:50:45;5.05;;;3.53;;
36213;SDS011;37652;50.400;30.628;2022-07-23T02:52:46;4.20;;;3.90;;
36213;SDS011;37652;50.400;30.628;2022-07-23T02:54:46;3.88;;;3.50;;
36213;SDS011;37652;50.400;30.628;2022-07-23T02:56:47;4.05;;;3.70;;
36213;SDS011;37652;50.400;30.628;2022-07-23T02:58:50;4.00;;;3.70;;
36213;SDS011;37652;50.400;30.628;2022-07-23T03:00:51;4.35;;;3.95;;
36213;SDS011;37652;50.400;30.628;2022-07-23T03:04:52;4.07;;;3.77;;
36213;SDS011;37652;50.400;30.628;2022-07-23T03:06:53;4.18;;;3.42;;
36213;SDS011;37652;50.400;30.628;2022-07-23T03:08:54;3.70;;;3.28;;
36213;SDS011;37652;50.400;30.628;2022-07-23T03:10:55;3.88;;;3.67;;
36213;SDS011;37652;50.400;30.628;2022-07-23T03:12:55;4.82;;;3.60;;
36213;SDS011;37652;50.400;30.628;2022-07-23T03:14:56;3.70;;;3.40;;
36213;SDS011;37652;50.400;30.628;2022-07-23T03:16:57;4.35;;;3.90;;
36213;SDS011;37652;50.400;30.628;2022-07-23T03:18:59;4.10;;;3.67;;
36213;SDS011;37652;50.400;30.628;2022-07-23T03:21:00;5.13;;;3.60;;
36213;SDS011;37652;50.400;30.628;2022-07-23T03:23:01;3.60;;;3.22;;
36213;SDS011;37652;50.400;30.628;2022-07-23T03:25:02;4.43;;;3.70;;
36213;SDS011;37652;50.400;30.628;2022-07-23T03:27:02;3.90;;;3.60;;
36213;SDS011;37652;50.400;30.628;2022-07-23T03:29:03;3.85;;;3.35;;
36213;SDS011;37652;50.400;30.628;2022-07-23T03:31:04;3.60;;;3.40;;
36213;SDS011;37652;50.400;30.628;2022-07-23T03:33:05;3.47;;;3.22;;
36213;SDS011;37652;50.400;30.628;2022-07-23T03:35:06;4.70;;;3.30;;
36213;SDS011;37652;50.400;30.628;2022-07-23T03:39:07;4.13;;;3.83;;
36213;SDS011;37652;50.400;30.628;2022-07-23T03:41:08;6.88;;;3.60;;
36213;SDS011;37652;50.400;30.628;2022-07-23T03:43:09;4.20;;;3.55;;
36213;SDS011;37652;50.400;30.628;2022-07-23T03:45:09;3.13;;;2.92;;
36213;SDS011;37652;50.400;30.628;2022-07-23T03:47:10;3.80;;;3.00;;
36213;SDS011;37652;50.400;30.628;2022-07-23T03:49:11;3.80;;;3.50;;
36213;SDS011;37652;50.400;30.628;2022-07-23T03:53:13;4.65;;;3.38;;
36213;SDS011;37652;50.400;30.628;2022-07-23T03:55:14;3.30;;;3.10;;
36213;SDS011;37652;50.400;30.628;2022-07-23T03:59:15;3.67;;;3.37;;
36213;SDS011;37652;50.400;30.628;2022-07-23T04:01:16;3.47;;;2.92;;
36213;SDS011;37652;50.400;30.628;2022-07-23T04:03:17;3.22;;;3.03;;
36213;SDS011;37652;50.400;30.628;2022-07-23T04:05:17;5.63;;;3.50;;
36213;SDS011;37652;50.400;30.628;2022-07-23T04:07:18;4.05;;;3.75;;
36213;SDS011;37652;50.400;30.628;2022-07-23T04:09:19;3.20;;;3.00;;
36213;SDS011;37652;50.400;30.628;2022-07-23T04:11:20;4.20;;;3.90;;
36213;SDS011;37652;50.400;30.628;2022-07-23T04:13:21;6.00;;;3.10;;
36213;SDS011;37652;50.400;30.628;2022-07-23T04:15:21;4.45;;;3.33;;
36213;SDS011;37652;50.400;30.628;2022-07-23T04:17:22;4.35;;;3.97;;
36213;SDS011;37652;50.400;30.628;2022-07-23T04:19:23;3.78;;;3.40;;
36213;SDS011;37652;50.400;30.628;2022-07-23T04:21:24;6.93;;;3.67;;
36213;SDS011;37652;50.400;30.628;2022-07-23T04:25:25;3.72;;;3.42;;
36213;SDS011;37652;50.400;30.628;2022-07-23T04:27:26;4.68;;;3.55;;
36213;SDS011;37652;50.400;30.628;2022-07-23T04:31:27;3.20;;;3.00;;
36213;SDS011;37652;50.400;30.628;2022-07-23T04:33:28;3.75;;;3.22;;
36213;SDS011;37652;50.400;30.628;2022-07-23T04:35:29;3.42;;;3.13;;
36213;SDS011;37652;50.400;30.628;2022-07-23T04:37:30;4.55;;;3.30;;
36213;SDS011;37652;50.400;30.628;2022-07-23T04:41:31;5.90;;;3.47;;
36213;SDS011;37652;50.400;30.628;2022-07-23T04:43:32;4.72;;;3.30;;
36213;SDS011;37652;50.400;30.628;2022-07-23T04:45:33;3.38;;;2.60;;
36213;SDS011;37652;50.400;30.628;2022-07-23T04:47:33;4.55;;;3.10;;
36213;SDS011;37652;50.400;30.628;2022-07-23T04:51:35;8.02;;;2.88;;
36213;SDS011;37652;50.400;30.628;2022-07-23T04:55:38;3.42;;;3.20;;
36213;SDS011;37652;50.400;30.628;2022-07-23T04:59:39;6.33;;;2.80;;
36213;SDS011;37652;50.400;30.628;2022-07-23T05:05:42;6.03;;;2.80;;
36213;SDS011;37652;50.400;30.628;2022-07-23T05:09:43;3.37;;;2.93;;
36213;SDS011;37652;50.400;30.628;2022-07-23T05:11:44;4.85;;;3.15;;
36213;SDS011;37652;50.400;30.628;2022-07-23T05:15:45;2.77;;;2.47;;
36213;SDS011;37652;50.400;30.628;2022-07-23T05:17:46;2.92;;;2.63;;
36213;SDS011;37652;50.400;30.628;2022-07-23T05:21:48;7.07;;;3.28;;
36213;SDS011;37652;50.400;30.628;2022-07-23T05:25:49;3.13;;;2.50;;
36213;SDS011;37652;50.400;30.628;2022-07-23T05:29:50;3.30;;;2.78;;
36213;SDS011;37652;50.400;30.628;2022-07-23T05:33:52;3.47;;;2.57;;
36213;SDS011;37652;50.400;30.628;2022-07-23T05:37:53;6.28;;;2.53;;
36213;SDS011;37652;50.400;30.628;2022-07-23T05:39:54;2.75;;;2.42;;
36213;SDS011;37652;50.400;30.628;2022-07-23T05:43:56;3.08;;;2.88;;
36213;SDS011;37652;50.400;30.628;2022-07-23T05:47:57;4.38;;;2.85;;
36213;SDS011;37652;50.400;30.628;2022-07-23T05:51:58;7.10;;;2.53;;
36213;SDS011;37652;50.400;30.628;2022-07-23T05:54:04;7.35;;;3.15;;
36213;SDS011;37652;50.400;30.628;2022-07-23T05:58:05;2.97;;;2.77;;
36213;SDS011;37652;50.400;30.628;2022-07-23T06:02:08;4.00;;;2.28;;
36213;SDS011;37652;50.400;30.628;2022-07-23T06:06:09;2.83;;;2.60;;
36213;SDS011;37652;50.400;30.628;2022-07-23T06:08:09;3.35;;;2.42;;
36213;SDS011;37652;50.400;30.628;2022-07-23T06:12:11;2.80;;;2.53;;
36213;SDS011;37652;50.400;30.628;2022-07-23T06:16:12;3.00;;;2.27;;
36213;SDS011;37652;50.400;30.628;2022-07-23T06:20:13;3.03;;;2.40;;
36213;SDS011;37652;50.400;30.628;2022-07-23T06:24:14;3.10;;;2.57;;
36213;SDS011;37652;50.400;30.628;2022-07-23T06:28:15;4.43;;;2.60;;
36213;SDS011;37652;50.400;30.628;2022-07-23T06:32:18;2.25;;;2.05;;
36213;SDS011;37652;50.400;30.628;2022-07-23T06:34:19;3.40;;;2.20;;
36213;SDS011;37652;50.400;30.628;2022-07-23T06:38:20;2.40;;;2.20;;
36213;SDS011;37652;50.400;30.628;2022-07-23T06:42:21;8.33;;;2.87;;
36213;SDS011;37652;50.400;30.628;2022-07-23T06:44:22;2.30;;;2.10;;
36213;SDS011;37652;50.400;30.628;2022-07-23T06:46:23;3.53;;;2.33;;
36213;SDS011;37652;50.400;30.628;2022-07-23T06:48:25;2.85;;;2.22;;
36213;SDS011;37652;50.400;30.628;2022-07-23T06:50:25;2.97;;;2.67;;
36213;SDS011;37652;50.400;30.628;2022-07-23T06:54:27;6.22;;;3.03;;
36213;SDS011;37652;50.400;30.628;2022-07-23T06:56:28;3.13;;;2.13;;
36213;SDS011;37652;50.400;30.628;2022-07-23T06:58:29;4.28;;;2.15;;
36213;SDS011;37652;50.400;30.628;2022-07-23T07:00:30;5.20;;;2.10;;
36213;SDS011;37652;50.400;30.628;2022-07-23T07:02:31;2.45;;;2.20;;
36213;SDS011;37652;50.400;30.628;2022-07-23T07:04:32;3.47;;;2.10;;
36213;SDS011;37652;50.400;30.628;2022-07-23T07:06:33;2.40;;;2.20;;
36213;SDS011;37652;50.400;30.628;2022-07-23T07:08:34;1.73;;;1.60;;
36213;SDS011;37652;50.400;30.628;2022-07-23T07:10:35;4.35;;;2.20;;
36213;SDS011;37652;50.400;30.628;2022-07-23T07:12:36;10.98;;;2.75;;
36213;SDS011;37652;50.400;30.628;2022-07-23T07:14:37;4.70;;;2.28;;
36213;SDS011;37652;50.400;30.628;2022-07-23T07:16:38;3.70;;;2.63;;
36213;SDS011;37652;50.400;30.628;2022-07-23T07:18:39;2.90;;;1.60;;
36213;SDS011;37652;50.400;30.628;2022-07-23T07:20:40;2.28;;;2.10;;
36213;SDS011;37652;50.400;30.628;2022-07-23T07:22:40;2.00;;;1.90;;
36213;SDS011;37652;50.400;30.628;2022-07-23T07:24:41;3.95;;;2.17;;
36213;SDS011;37652;50.400;30.628;2022-07-23T07:26:42;4.85;;;3.20;;
36213;SDS011;37652;50.400;30.628;2022-07-23T07:28:43;2.33;;;2.10;;
36213;SDS011;37652;50.400;30.628;2022-07-23T07:30:44;4.97;;;2.78;;
36213;SDS011;37652;50.400;30.628;2022-07-23T07:32:45;4.28;;;1.92;;
36213;SDS011;37652;50.400;30.628;2022-07-23T07:34:45;3.10;;;2.10;;
36213;SDS011;37652;50.400;30.628;2022-07-23T07:36:46;2.33;;;1.70;;
36213;SDS011;37652;50.400;30.628;2022-07-23T07:38:47;2.03;;;1.92;;
36213;SDS011;37652;50.400;30.628;2022-07-23T07:40:48;2.53;;;1.88;;
36213;SDS011;37652;50.400;30.628;2022-07-23T07:42:49;3.83;;;2.33;;
36213;SDS011;37652;50.400;30.628;2022-07-23T07:44:51;2.97;;;2.60;;
36213;SDS011;37652;50.400;30.628;2022-07-23T07:46:52;2.60;;;2.30;;
36213;SDS011;37652;50.400;30.628;2022-07-23T07:48:53;2.30;;;1.70;;
36213;SDS011;37652;50.400;30.628;2022-07-23T07:50:54;3.38;;;2.15;;
36213;SDS011;37652;50.400;30.628;2022-07-23T07:52:55;2.15;;;2.00;;
36213;SDS011;37652;50.400;30.628;2022-07-23T07:54:56;2.85;;;1.75;;
36213;SDS011;37652;50.400;30.628;2022-07-23T07:56:57;1.95;;;1.65;;
36213;SDS011;37652;50.400;30.628;2022-07-23T07:58:57;2.15;;;1.95;;
36213;SDS011;37652;50.400;30.628;2022-07-23T08:00:59;3.38;;;1.90;;
36213;SDS011;37652;50.400;30.628;2022-07-23T08:03:00;2.17;;;1.77;;
36213;SDS011;37652;50.400;30.628;2022-07-23T08:05:01;1.73;;;1.42;;
36213;SDS011;37652;50.400;30.628;2022-07-23T08:07:03;2.45;;;2.00;;
36213;SDS011;37652;50.400;30.628;2022-07-23T08:09:03;2.88;;;2.20;;
36213;SDS011;37652;50.400;30.628;2022-07-23T08:11:04;3.47;;;2.15;;
36213;SDS011;37652;50.400;30.628;2022-07-23T08:13:05;1.90;;;1.80;;
36213;SDS011;37652;50.400;30.628;2022-07-23T08:15:06;2.45;;;1.70;;
36213;SDS011;37652;50.400;30.628;2022-07-23T08:17:08;5.35;;;2.05;;
36213;SDS011;37652;50.400;30.628;2022-07-23T08:19:09;2.25;;;1.90;;
36213;SDS011;37652;50.400;30.628;2022-07-23T08:21:09;2.00;;;1.85;;
36213;SDS011;37652;50.400;30.628;2022-07-23T08:23:11;3.88;;;1.85;;
36213;SDS011;37652;50.400;30.628;2022-07-23T08:25:12;2.25;;;2.05;;
36213;SDS011;37652;50.400;30.628;2022-07-23T08:27:13;2.55;;;2.00;;
36213;SDS011;37652;50.400;30.628;2022-07-23T08:29:14;2.78;;;2.20;;
36213;SDS011;37652;50.400;30.628;2022-07-23T08:31:15;2.15;;;1.90;;
36213;SDS011;37652;50.400;30.628;2022-07-23T08:33:17;2.50;;;1.92;;
36213;SDS011;37652;50.400;30.628;2022-07-23T08:35:23;1.92;;;1.83;;
36213;SDS011;37652;50.400;30.628;2022-07-23T08:37:26;4.05;;;1.92;;
36213;SDS011;37652;50.400;30.628;2022-07-23T08:39:27;3.60;;;2.10;;
36213;SDS011;37652;50.400;30.628;2022-07-23T08:41:27;1.77;;;1.67;;
36213;SDS011;37652;50.400;30.628;2022-07-23T08:43:29;7.72;;;1.70;;
36213;SDS011;37652;50.400;30.628;2022-07-23T08:45:31;2.42;;;2.10;;
36213;SDS011;37652;50.400;30.628;2022-07-23T08:47:39;1.88;;;1.75;;
36213;SDS011;37652;50.400;30.628;2022-07-23T08:49:40;1.80;;;1.70;;
36213;SDS011;37652;50.400;30.628;2022-07-23T08:51:42;1.67;;;1.58;;
36213;SDS011;37652;50.400;30.628;2022-07-23T08:53:43;7.07;;;1.58;;
36213;SDS011;37652;50.400;30.628;2022-07-23T08:55:45;2.60;;;1.60;;
36213;SDS011;37652;50.400;30.628;2022-07-23T08:57:51;1.58;;;1.42;;
36213;SDS011;37652;50.400;30.628;2022-07-23T08:59:52;3.53;;;1.80;;
36213;SDS011;37652;50.400;30.628;2022-07-23T09:01:53;2.88;;;1.80;;
36213;SDS011;37652;50.400;30.628;2022-07-23T09:03:54;3.90;;;1.88;;
36213;SDS011;37652;50.400;30.628;2022-07-23T09:05:57;2.22;;;1.75;;
36213;SDS011;37652;50.400;30.628;2022-07-23T09:08:05;6.95;;;1.67;;
36213;SDS011;37652;50.400;30.628;2022-07-23T09:10:13;3.80;;;2.00;;
36213;SDS011;37652;50.400;30.628;2022-07-23T09:12:14;2.22;;;1.40;;
36213;SDS011;37652;50.400;30.628;2022-07-23T09:14:14;1.50;;;1.40;;
36213;SDS011;37652;50.400;30.628;2022-07-23T09:16:16;1.73;;;1.38;;
36213;SDS011;37652;50.400;30.628;2022-07-23T09:18:19;2.95;;;1.25;;
36213;SDS011;37652;50.400;30.628;2022-07-23T09:20:20;3.03;;;1.10;;
36213;SDS011;37652;50.400;30.628;2022-07-23T09:22:24;1.10;;;1.10;;
36213;SDS011;37652;50.400;30.628;2022-07-23T09:24:26;1.90;;;1.67;;
36213;SDS011;37652;50.400;30.628;2022-07-23T09:28:32;1.85;;;1.35;;
36213;SDS011;37652;50.400;30.628;2022-07-23T09:30:33;1.27;;;1.17;;
36213;SDS011;37652;50.400;30.628;2022-07-23T09:32:34;2.13;;;1.20;;
36213;SDS011;37652;50.400;30.628;2022-07-23T09:34:35;2.58;;;1.13;;
36213;SDS011;37652;50.400;30.628;2022-07-23T09:36:39;3.92;;;1.20;;
36213;SDS011;37652;50.400;30.628;2022-07-23T09:38:47;1.70;;;1.10;;
36213;SDS011;37652;50.400;30.628;2022-07-23T09:41:05;3.83;;;2.28;;
36213;SDS011;37652;50.400;30.628;2022-07-23T09:45:11;2.65;;;1.30;;
36213;SDS011;37652;50.400;30.628;2022-07-23T09:47:12;1.50;;;1.40;;
36213;SDS011;37652;50.400;30.628;2022-07-23T09:49:17;1.98;;;1.05;;
36213;SDS011;37652;50.400;30.628;2022-07-23T09:51:20;1.45;;;1.27;;
36213;SDS011;37652;50.400;30.628;2022-07-23T09:53:29;1.73;;;1.27;;
36213;SDS011;37652;50.400;30.628;2022-07-23T09:55:31;1.30;;;1.20;;
36213;SDS011;37652;50.400;30.628;2022-07-23T09:57:40;1.73;;;1.48;;
36213;SDS011;37652;50.400;30.628;2022-07-23T09:59:42;2.17;;;1.33;;
36213;SDS011;37652;50.400;30.628;2022-07-23T10:01:44;1.85;;;0.98;;
36213;SDS011;37652;50.400;30.628;2022-07-23T10:03:45;1.63;;;1.17;;
36213;SDS011;37652;50.400;30.628;2022-07-23T10:05:46;4.82;;;1.00;;
36213;SDS011;37652;50.400;30.628;2022-07-23T10:07:49;3.00;;;1.20;;
36213;SDS011;37652;50.400;30.628;2022-07-23T10:09:51;2.38;;;0.90;;
36213;SDS011;37652;50.400;30.628;2022-07-23T10:11:54;3.45;;;0.95;;
36213;SDS011;37652;50.400;30.628;2022-07-23T10:14:01;1.65;;;1.10;;
36213;SDS011;37652;50.400;30.628;2022-07-23T10:16:04;3.25;;;1.17;;
36213;SDS011;37652;50.400;30.628;2022-07-23T10:18:05;2.30;;;1.17;;
36213;SDS011;37652;50.400;30.628;2022-07-23T10:20:06;2.38;;;1.25;;
36213;SDS011;37652;50.400;30.628;2022-07-23T10:22:14;1.80;;;1.70;;
36213;SDS011;37652;50.400;30.628;2022-07-23T10:27:17;1.17;;;1.00;;
36213;SDS011;37652;50.400;30.628;2022-07-23T10:29:42;2.25;;;1.40;;
36213;SDS011;37652;50.400;30.628;2022-07-23T10:32:17;1.33;;;1.20;;
36213;SDS011;37652;50.400;30.628;2022-07-23T10:37:12;3.00;;;1.08;;
36213;SDS011;37652;50.400;30.628;2022-07-23T10:41:30;3.20;;;1.63;;
36213;SDS011;37652;50.400;30.628;2022-07-23T10:43:32;1.92;;;1.17;;
36213;SDS011;37652;50.400;30.628;2022-07-23T10:45:34;1.40;;;1.30;;
36213;SDS011;37652;50.400;30.628;2022-07-23T10:47:39;3.28;;;1.35;;
36213;SDS011;37652;50.400;30.628;2022-07-23T10:49:40;1.55;;;1.45;;
36213;SDS011;37652;50.400;30.628;2022-07-23T10:52:04;1.33;;;1.23;;
36213;SDS011;37652;50.400;30.628;2022-07-23T10:54:22;4.20;;;1.50;;
36213;SDS011;37652;50.400;30.628;2022-07-23T10:59:09;2.13;;;1.55;;
36213;SDS011;37652;50.400;30.628;2022-07-23T11:03:36;1.50;;;1.00;;
36213;SDS011;37652;50.400;30.628;2022-07-23T11:05:45;3.10;;;1.50;;
36213;SDS011;37652;50.400;30.628;2022-07-23T11:10:05;1.67;;;1.10;;
36213;SDS011;37652;50.400;30.628;2022-07-23T11:14:13;1.30;;;1.10;;
36213;SDS011;37652;50.400;30.628;2022-07-23T11:16:14;3.60;;;1.30;;
36213;SDS011;37652;50.400;30.628;2022-07-23T11:20:42;1.15;;;1.05;;
36213;SDS011;37652;50.400;30.628;2022-07-23T11:24:50;1.65;;;1.30;;
36213;SDS011;37652;50.400;30.628;2022-07-23T11:26:57;2.88;;;1.10;;
36213;SDS011;37652;50.400;30.628;2022-07-23T11:29:37;1.33;;;1.08;;
36213;SDS011;37652;50.400;30.628;2022-07-23T11:31:26;2.05;;;1.00;;
36213;SDS011;37652;50.400;30.628;2022-07-23T11:33:26;1.75;;;1.38;;
36213;SDS011;37652;50.400;30.628;2022-07-23T11:35:28;1.52;;;1.02;;
36213;SDS011;37652;50.400;30.628;2022-07-23T11:37:32;1.48;;;1.27;;
36213;SDS011;37652;50.400;30.628;2022-07-23T11:39:38;2.92;;;1.17;;
36213;SDS011;37652;50.400;30.628;2022-07-23T11:41:43;2.03;;;1.23;;
36213;SDS011;37652;50.400;30.628;2022-07-23T11:43:44;3.85;;;1.33;;
36213;SDS011;37652;50.400;30.628;2022-07-23T11:45:49;1.50;;;1.40;;
36213;SDS011;37652;50.400;30.628;2022-07-23T11:47:51;2.10;;;1.10;;
36213;SDS011;37652;50.400;30.628;2022-07-23T11:49:53;5.50;;;1.67;;
36213;SDS011;37652;50.400;30.628;2022-07-23T11:52:11;2.70;;;1.30;;
36213;SDS011;37652;50.400;30.628;2022-07-23T11:54:14;1.95;;;1.38;;
36213;SDS011;37652;50.400;30.628;2022-07-23T11:56:14;2.00;;;1.23;;
36213;SDS011;37652;50.400;30.628;2022-07-23T11:58:15;2.15;;;1.52;;
36213;SDS011;37652;50.400;30.628;2022-07-23T12:00:18;2.58;;;1.15;;
36213;SDS011;37652;50.400;30.628;2022-07-23T12:02:22;2.40;;;1.05;;
36213;SDS011;37652;50.400;30.628;2022-07-23T12:04:23;3.40;;;1.27;;
36213;SDS011;37652;50.400;30.628;2022-07-23T12:06:39;1.17;;;1.10;;
36213;SDS011;37652;50.400;30.628;2022-07-23T12:08:43;2.20;;;1.15;;
36213;SDS011;37652;50.400;30.628;2022-07-23T12:10:44;3.10;;;1.48;;
36213;SDS011;37652;50.400;30.628;2022-07-23T12:12:46;0.98;;;0.98;;
36213;SDS011;37652;50.400;30.628;2022-07-23T12:14:53;2.22;;;1.30;;
36213;SDS011;37652;50.400;30.628;2022-07-23T12:17:06;1.73;;;1.02;;
36213;SDS011;37652;50.400;30.628;2022-07-23T12:19:08;2.60;;;1.00;;
36213;SDS011;37652;50.400;30.628;2022-07-23T12:21:09;1.48;;;1.20;;
36213;SDS011;37652;50.400;30.628;2022-07-23T12:23:11;1.58;;;1.30;;
36213;SDS011;37652;50.400;30.628;2022-07-23T12:25:19;1.30;;;1.20;;
36213;SDS011;37652;50.400;30.628;2022-07-23T12:27:22;2.88;;;1.23;;
36213;SDS011;37652;50.400;30.628;2022-07-23T12:29:33;1.90;;;1.25;;
36213;SDS011;37652;50.400;30.628;2022-07-23T12:31:35;2.55;;;1.17;;
36213;SDS011;37652;50.400;30.628;2022-07-23T12:33:38;1.38;;;1.27;;
36213;SDS011;37652;50.400;30.628;2022-07-23T12:35:45;3.88;;;1.30;;
36213;SDS011;37652;50.400;30.628;2022-07-23T12:37:48;3.08;;;1.45;;
36213;SDS011;37652;50.400;30.628;2022-07-23T12:39:52;2.30;;;2.00;;
36213;SDS011;37652;50.400;30.628;2022-07-23T12:41:53;8.95;;;3.35;;
36213;SDS011;37652;50.400;30.628;2022-07-23T12:43:54;7.40;;;4.25;;
36213;SDS011;37652;50.400;30.628;2022-07-23T12:46:12;5.18;;;2.83;;
36213;SDS011;37652;50.400;30.628;2022-07-23T12:48:22;3.17;;;2.20;;
36213;SDS011;37652;50.400;30.628;2022-07-23T12:50:37;5.35;;;2.25;;
36213;SDS011;37652;50.400;30.628;2022-07-23T12:52:47;4.30;;;1.63;;
36213;SDS011;37652;50.400;30.628;2022-07-23T12:54:54;3.05;;;1.60;;
36213;SDS011;37652;50.400;30.628;2022-07-23T12:56:54;3.70;;;3.40;;
36213;SDS011;37652;50.400;30.628;2022-07-23T12:59:04;3.75;;;3.30;;
36213;SDS011;37652;50.400;30.628;2022-07-23T13:01:26;2.63;;;1.60;;
36213;SDS011;37652;50.400;30.628;2022-07-23T13:05:33;3.20;;;1.30;;
36213;SDS011;37652;50.400;30.628;2022-07-23T13:07:33;4.93;;;1.55;;
36213;SDS011;37652;50.400;30.628;2022-07-23T13:09:34;1.55;;;1.20;;
36213;SDS011;37652;50.400;30.628;2022-07-23T13:11:34;1.50;;;1.27;;
36213;SDS011;37652;50.400;30.628;2022-07-23T13:13:35;1.27;;;1.13;;
36213;SDS011;37652;50.400;30.628;2022-07-23T13:15:36;1.70;;;1.17;;
36213;SDS011;37652;50.400;30.628;2022-07-23T13:17:37;2.53;;;1.40;;
36213;SDS011;37652;50.400;30.628;2022-07-23T13:19:41;3.00;;;1.45;;
36213;SDS011;37652;50.400;30.628;2022-07-23T13:21:42;3.28;;;1.65;;
36213;SDS011;37652;50.400;30.628;2022-07-23T13:23:43;3.33;;;1.45;;
36213;SDS011;37652;50.400;30.628;2022-07-23T13:25:44;1.55;;;1.25;;
36213;SDS011;37652;50.400;30.628;2022-07-23T13:27:45;1.75;;;1.13;;
36213;SDS011;37652;50.400;30.628;2022-07-23T13:29:46;3.72;;;1.70;;
36213;SDS011;37652;50.400;30.628;2022-07-23T13:31:46;1.98;;;1.00;;
36213;SDS011;37652;50.400;30.628;2022-07-23T13:33:50;4.72;;;1.20;;
36213;SDS011;37652;50.400;30.628;2022-07-23T13:35:51;1.42;;;1.27;;
36213;SDS011;37652;50.400;30.628;2022-07-23T13:37:52;1.65;;;1.52;;
36213;SDS011;37652;50.400;30.628;2022-07-23T13:39:53;2.28;;;1.52;;
36213;SDS011;37652;50.400;30.628;2022-07-23T13:41:54;2.78;;;1.20;;
36213;SDS011;37652;50.400;30.628;2022-07-23T13:43:56;1.58;;;1.33;;
36213;SDS011;37652;50.400;30.628;2022-07-23T13:45:58;4.13;;;1.15;;
36213;SDS011;37652;50.400;30.628;2022-07-23T13:48:02;4.90;;;1.20;;
36213;SDS011;37652;50.400;30.628;2022-07-23T13:50:03;1.35;;;1.25;;
36213;SDS011;37652;50.400;30.628;2022-07-23T13:52:05;1.08;;;0.80;;
36213;SDS011;37652;50.400;30.628;2022-07-23T13:54:06;3.38;;;1.30;;